createdAt,value
2024-02-29T00:00:45.390Z,95343.00
2024-02-29T00:01:45.502Z,95342.00
2024-02-29T00:02:45.437Z,95341.00
2024-02-29T00:03:45.534Z,95341.00
2024-02-29T00:04:45.554Z,95339.00
2024-02-29T00:05:45.648Z,95339.00
2024-02-29T00:06:45.756Z,95341.00
2024-02-29T00:07:45.810Z,95339.00
2024-02-29T00:08:45.853Z,95338.00
2024-02-29T00:09:45.947Z,95338.00
2024-02-29T00:10:45.997Z,95338.00
2024-02-29T00:11:46.090Z,95340.00
2024-02-29T00:12:46.132Z,95338.00
2024-02-29T00:13:46.202Z,95339.00
2024-02-29T00:14:46.250Z,95340.00
2024-02-29T00:15:46.373Z,95335.00
2024-02-29T00:16:46.401Z,95336.00
2024-02-29T00:17:46.523Z,95333.00
2024-02-29T00:18:46.547Z,95331.00
2024-02-29T00:19:46.630Z,95330.00
2024-02-29T00:20:46.645Z,95331.00
2024-02-29T00:21:46.789Z,95329.00
2024-02-29T00:22:46.783Z,95330.00
2024-02-29T00:23:46.870Z,95328.00
2024-02-29T00:24:47.002Z,95330.00
2024-02-29T00:25:47.028Z,95327.00
2024-02-29T00:26:47.075Z,95327.00
2024-02-29T00:27:47.215Z,95326.00
2024-02-29T00:28:47.225Z,95326.00
2024-02-29T00:29:47.310Z,95323.00
2024-02-29T00:30:47.425Z,95322.00
2024-02-29T00:31:47.524Z,95323.00
2024-02-29T00:32:47.620Z,95322.00
2024-02-29T00:33:47.836Z,95326.00
2024-02-29T00:34:47.625Z,95324.00
2024-02-29T00:35:49.618Z,95325.00
2024-02-29T00:36:47.800Z,95324.00
2024-02-29T00:37:47.814Z,95324.00
2024-02-29T00:38:49.154Z,95323.00
2024-02-29T00:39:47.993Z,95324.00
2024-02-29T00:40:47.912Z,95321.00
2024-02-29T00:41:47.861Z,95321.00
2024-02-29T00:42:47.915Z,95321.00
2024-02-29T00:43:48.225Z,95317.00
2024-02-29T00:44:47.875Z,95317.00
2024-02-29T00:45:47.905Z,95315.00
2024-02-29T00:46:47.847Z,95314.00
2024-02-29T00:47:47.947Z,95317.00
2024-02-29T00:48:47.981Z,95316.00
2024-02-29T00:49:47.861Z,95315.00
2024-02-29T00:50:47.865Z,95314.00
2024-02-29T00:51:47.919Z,95312.00
2024-02-29T00:52:47.891Z,95312.00
2024-02-29T00:53:48.220Z,95307.00
2024-02-29T00:54:47.909Z,95308.00
2024-02-29T00:55:47.904Z,95307.00
2024-02-29T00:56:47.917Z,95307.00
2024-02-29T00:57:47.878Z,95304.00
2024-02-29T00:58:47.947Z,95303.00
2024-02-29T00:59:47.908Z,95300.00
2024-02-29T01:00:47.925Z,95298.00
2024-02-29T01:01:48.162Z,95298.00
2024-02-29T01:02:47.882Z,95295.00
2024-02-29T01:03:47.947Z,95293.00
2024-02-29T01:04:47.934Z,95293.00
2024-02-29T01:05:47.917Z,95291.00
2024-02-29T01:06:47.905Z,95291.00
2024-02-29T01:07:47.893Z,95289.00
2024-02-29T01:08:48.203Z,95288.00
2024-02-29T01:09:47.945Z,95286.00
2024-02-29T01:10:47.946Z,95282.00
2024-02-29T01:11:47.912Z,95283.00
2024-02-29T01:12:47.942Z,95283.00
2024-02-29T01:13:47.911Z,95281.00
2024-02-29T01:14:47.937Z,95281.00
2024-02-29T01:15:47.943Z,95278.00
2024-02-29T01:16:47.942Z,95278.00
2024-02-29T01:17:50.629Z,95279.00
2024-02-29T01:18:47.973Z,95279.00
2024-02-29T01:19:47.954Z,95279.00
2024-02-29T01:20:47.922Z,95278.00
2024-02-29T01:21:47.983Z,95276.00
2024-02-29T01:22:47.935Z,95272.00
2024-02-29T01:23:47.908Z,95273.00
2024-02-29T01:24:48.023Z,95275.00
2024-02-29T01:25:47.933Z,95274.00
2024-02-29T01:26:47.925Z,95271.00
2024-02-29T01:27:47.999Z,95271.00
2024-02-29T01:28:47.953Z,95269.00
2024-02-29T01:29:48.226Z,95269.00
2024-02-29T01:30:47.947Z,95264.00
2024-02-29T01:31:47.954Z,95265.00
2024-02-29T01:32:47.992Z,95262.00
2024-02-29T01:33:48.014Z,95261.00
2024-02-29T01:34:47.947Z,95260.00
2024-02-29T01:35:47.955Z,95257.00
2024-02-29T01:36:48.026Z,95257.00
2024-02-29T01:37:47.970Z,95253.00
2024-02-29T01:38:47.932Z,95253.00
2024-02-29T01:39:48.240Z,95249.00
2024-02-29T01:40:47.950Z,95250.00
2024-02-29T01:41:47.959Z,95248.00
2024-02-29T01:42:48.011Z,95247.00
2024-02-29T01:43:47.944Z,95248.00
2024-02-29T01:44:47.950Z,95247.00
2024-02-29T01:45:47.973Z,95249.00
2024-02-29T01:46:47.944Z,95247.00
2024-02-29T01:47:47.966Z,95246.00
2024-02-29T01:48:47.992Z,95247.00
2024-02-29T01:49:47.965Z,95245.00
2024-02-29T01:50:47.986Z,95244.00
2024-02-29T01:51:48.065Z,95239.00
2024-02-29T01:52:47.990Z,95239.00
2024-02-29T01:53:48.715Z,95238.00
2024-02-29T01:54:48.024Z,95234.00
2024-02-29T01:55:47.961Z,95231.00
2024-02-29T01:56:48.025Z,95229.00
2024-02-29T01:57:48.001Z,95230.00
2024-02-29T01:58:47.995Z,95230.00
2024-02-29T01:59:48.246Z,95228.00
2024-02-29T02:00:48.123Z,95228.00
2024-02-29T02:01:48.226Z,95228.00
2024-02-29T02:02:48.017Z,95227.00
2024-02-29T02:03:48.148Z,95226.00
2024-02-29T02:04:47.995Z,95221.00
2024-02-29T02:05:47.988Z,95223.00
2024-02-29T02:06:48.011Z,95220.00
2024-02-29T02:07:47.998Z,95218.00
2024-02-29T02:08:48.001Z,95216.00
2024-02-29T02:09:48.272Z,95215.00
2024-02-29T02:10:48.054Z,95217.00
2024-02-29T02:11:48.028Z,95222.00
2024-02-29T02:12:48.081Z,95223.00
2024-02-29T02:13:48.010Z,95220.00
2024-02-29T02:14:48.003Z,95221.00
2024-02-29T02:15:48.103Z,95217.00
2024-02-29T02:16:48.011Z,95217.00
2024-02-29T02:17:48.052Z,95216.00
2024-02-29T02:18:48.051Z,95216.00
2024-02-29T02:19:48.034Z,95214.00
2024-02-29T02:20:48.015Z,95215.00
2024-02-29T02:21:48.031Z,95213.00
2024-02-29T02:22:48.015Z,95213.00
2024-02-29T02:23:48.007Z,95212.00
2024-02-29T02:24:48.019Z,95210.00
2024-02-29T02:25:48.009Z,95209.00
2024-02-29T02:26:48.769Z,95209.00
2024-02-29T02:27:48.116Z,95208.00
2024-02-29T02:28:48.045Z,95209.00
2024-02-29T02:29:48.005Z,95207.00
2024-02-29T02:30:48.064Z,95208.00
2024-02-29T02:31:48.031Z,95205.00
2024-02-29T02:32:48.064Z,95207.00
2024-02-29T02:33:48.074Z,95203.00
2024-02-29T02:34:48.025Z,95202.00
2024-02-29T02:35:48.016Z,95200.00
2024-02-29T02:36:48.037Z,95201.00
2024-02-29T02:37:48.032Z,95203.00
2024-02-29T02:38:48.054Z,95203.00
2024-02-29T02:39:48.294Z,95202.00
2024-02-29T02:40:48.031Z,95203.00
2024-02-29T02:41:48.032Z,95202.00
2024-02-29T02:42:48.075Z,95204.00
2024-02-29T02:43:48.036Z,95206.00
2024-02-29T02:44:48.054Z,95204.00
2024-02-29T02:45:48.047Z,95206.00
2024-02-29T02:46:48.057Z,95206.00
2024-02-29T02:47:48.065Z,95207.00
2024-02-29T02:48:48.068Z,95206.00
2024-02-29T02:49:48.109Z,95203.00
2024-02-29T02:50:48.077Z,95201.00
2024-02-29T02:51:48.146Z,95198.00
2024-02-29T02:52:48.043Z,95197.00
2024-02-29T02:53:48.044Z,95192.00
2024-02-29T02:54:48.237Z,95190.00
2024-02-29T02:55:48.068Z,95191.00
2024-02-29T02:56:48.088Z,95189.00
2024-02-29T02:57:48.110Z,95189.00
2024-02-29T02:58:48.069Z,95190.00
2024-02-29T02:59:48.116Z,95191.00
2024-02-29T03:00:48.168Z,95192.00
2024-02-29T03:01:48.351Z,95193.00
2024-02-29T03:02:48.242Z,95194.00
2024-02-29T03:03:48.323Z,95193.00
2024-02-29T03:04:48.734Z,95193.00
2024-02-29T03:05:48.457Z,95193.00
2024-02-29T03:06:48.404Z,95192.00
2024-02-29T03:07:49.265Z,95192.00
2024-02-29T03:08:48.465Z,95191.00
2024-02-29T03:09:48.523Z,95189.00
2024-02-29T03:10:48.616Z,95186.00
2024-02-29T03:11:48.602Z,95184.00
2024-02-29T03:12:48.676Z,95182.00
2024-02-29T03:13:48.693Z,95180.00
2024-02-29T03:14:48.768Z,95177.00
2024-02-29T03:15:48.846Z,95177.00
2024-02-29T03:16:48.831Z,95177.00
2024-02-29T03:17:48.869Z,95175.00
2024-02-29T03:18:48.933Z,95173.00
2024-02-29T03:19:48.961Z,95174.00
2024-02-29T03:20:48.978Z,95171.00
2024-02-29T03:21:49.027Z,95172.00
2024-02-29T03:22:49.089Z,95172.00
2024-02-29T03:23:49.142Z,95174.00
2024-02-29T03:24:49.351Z,95177.00
2024-02-29T03:25:49.207Z,95176.00
2024-02-29T03:26:49.270Z,95174.00
2024-02-29T03:27:49.315Z,95173.00
2024-02-29T03:28:49.324Z,95173.00
2024-02-29T03:29:49.409Z,95178.00
2024-02-29T03:30:49.551Z,95179.00
2024-02-29T03:31:49.453Z,95177.00
2024-02-29T03:32:49.589Z,95178.00
2024-02-29T03:33:49.637Z,95179.00
2024-02-29T03:34:49.791Z,95179.00
2024-02-29T03:35:49.703Z,95174.00
2024-02-29T03:36:49.703Z,95174.00
2024-02-29T03:37:49.748Z,95171.00
2024-02-29T03:38:49.814Z,95172.00
2024-02-29T03:39:49.896Z,95172.00
2024-02-29T03:40:49.922Z,95173.00
2024-02-29T03:41:49.940Z,95169.00
2024-02-29T03:42:50.014Z,95167.00
2024-02-29T03:43:50.054Z,95163.00
2024-02-29T03:44:50.266Z,95163.00
2024-02-29T03:45:50.228Z,95164.00
2024-02-29T03:46:50.242Z,95162.00
2024-02-29T03:47:50.346Z,95164.00
2024-02-29T03:48:50.357Z,95164.00
2024-02-29T03:49:50.395Z,95164.00
2024-02-29T03:50:50.425Z,95163.00
2024-02-29T03:51:50.502Z,95163.00
2024-02-29T03:52:50.536Z,95166.00
2024-02-29T03:53:50.600Z,95164.00
2024-02-29T03:54:50.859Z,95162.00
2024-02-29T03:55:50.672Z,95160.00
2024-02-29T03:56:50.722Z,95156.00
2024-02-29T03:57:50.805Z,95155.00
2024-02-29T03:58:50.840Z,95154.00
2024-02-29T03:59:50.937Z,95155.00
2024-02-29T04:00:51.001Z,95156.00
2024-02-29T04:01:51.139Z,95155.00
2024-02-29T04:02:51.043Z,95153.00
2024-02-29T04:03:51.123Z,95152.00
2024-02-29T04:04:51.290Z,95149.00
2024-02-29T04:05:51.194Z,95151.00
2024-02-29T04:06:51.324Z,95150.00
2024-02-29T04:07:51.295Z,95149.00
2024-02-29T04:08:51.374Z,95148.00
2024-02-29T04:09:51.532Z,95150.00
2024-02-29T04:10:51.610Z,95151.00
2024-02-29T04:11:51.570Z,95152.00
2024-02-29T04:12:51.651Z,95150.00
2024-02-29T04:13:51.689Z,95154.00
2024-02-29T04:14:51.811Z,95152.00
2024-02-29T04:15:51.813Z,95153.00
2024-02-29T04:16:51.882Z,95151.00
2024-02-29T04:17:51.887Z,95150.00
2024-02-29T04:18:52.052Z,95147.00
2024-02-29T04:19:52.032Z,95146.00
2024-02-29T04:20:52.089Z,95144.00
2024-02-29T04:21:52.157Z,95142.00
2024-02-29T04:22:52.165Z,95142.00
2024-02-29T04:23:52.244Z,95140.00
2024-02-29T04:24:52.407Z,95141.00
2024-02-29T04:25:52.362Z,95141.00
2024-02-29T04:26:52.477Z,95140.00
2024-02-29T04:27:52.534Z,95139.00
2024-02-29T04:28:52.515Z,95140.00
2024-02-29T04:29:52.781Z,95141.00
2024-02-29T04:30:52.667Z,95142.00
2024-02-29T04:31:52.715Z,95142.00
2024-02-29T04:32:52.838Z,95144.00
2024-02-29T04:34:00.217Z,95143.00
2024-02-29T04:35:00.197Z,95146.00
2024-02-29T04:36:00.069Z,95144.00
2024-02-29T04:37:00.078Z,95145.00
2024-02-29T04:38:00.124Z,95142.00
2024-02-29T04:39:00.076Z,95142.00
2024-02-29T04:40:00.205Z,95143.00
2024-02-29T04:41:00.072Z,95143.00
2024-02-29T04:42:00.084Z,95142.00
2024-02-29T04:43:00.115Z,95143.00
2024-02-29T04:44:00.122Z,95145.00
2024-02-29T04:45:00.090Z,95143.00
2024-02-29T04:46:00.107Z,95142.00
2024-02-29T04:47:00.061Z,95140.00
2024-02-29T04:48:00.169Z,95138.00
2024-02-29T04:49:00.141Z,95136.00
2024-02-29T04:50:00.059Z,95138.00
2024-02-29T04:51:00.127Z,95138.00
2024-02-29T04:52:00.195Z,95140.00
2024-02-29T04:53:00.078Z,95137.00
2024-02-29T04:54:00.106Z,95136.00
2024-02-29T04:55:00.261Z,95136.00
2024-02-29T04:56:00.154Z,95137.00
2024-02-29T04:57:00.157Z,95137.00
2024-02-29T04:58:00.254Z,95142.00
2024-02-29T04:59:00.269Z,95142.00
2024-02-29T05:00:00.373Z,95141.00
2024-02-29T05:01:00.436Z,95145.00
2024-02-29T05:02:02.496Z,95147.00
2024-02-29T05:03:00.554Z,95148.00
2024-02-29T05:04:00.618Z,95148.00
2024-02-29T05:05:00.715Z,95150.00
2024-02-29T05:06:00.783Z,95144.00
2024-02-29T05:07:00.802Z,95148.00
2024-02-29T05:08:00.840Z,95148.00
2024-02-29T05:09:01.013Z,95145.00
2024-02-29T05:10:01.030Z,95146.00
2024-02-29T05:11:01.121Z,95143.00
2024-02-29T05:12:01.124Z,95139.00
2024-02-29T05:13:01.243Z,95143.00
2024-02-29T05:14:01.238Z,95143.00
2024-02-29T05:15:01.304Z,95144.00
2024-02-29T05:16:01.403Z,95141.00
2024-02-29T05:17:01.442Z,95141.00
2024-02-29T05:18:01.549Z,95141.00
2024-02-29T05:19:01.576Z,95141.00
2024-02-29T05:20:01.648Z,95141.00
2024-02-29T05:21:01.760Z,95140.00
2024-02-29T05:22:01.794Z,95141.00
2024-02-29T05:23:01.834Z,95141.00
2024-02-29T05:24:01.905Z,95142.00
2024-02-29T05:25:02.225Z,95143.00
2024-02-29T05:26:02.038Z,95146.00
2024-02-29T05:27:02.094Z,95149.00
2024-02-29T05:28:02.208Z,95150.00
2024-02-29T05:29:02.259Z,95148.00
2024-02-29T05:30:02.331Z,95149.00
2024-02-29T05:31:02.436Z,95146.00
2024-02-29T05:32:02.431Z,95146.00
2024-02-29T05:33:02.568Z,95149.00
2024-02-29T05:34:02.588Z,95147.00
2024-02-29T05:35:02.637Z,95147.00
2024-02-29T05:36:02.679Z,95144.00
2024-02-29T05:37:02.829Z,95146.00
2024-02-29T05:38:02.787Z,95150.00
2024-02-29T05:39:02.879Z,95150.00
2024-02-29T05:40:03.037Z,95149.00
2024-02-29T05:41:03.040Z,95148.00
2024-02-29T05:42:03.033Z,95150.00
2024-02-29T05:43:03.096Z,95151.00
2024-02-29T05:44:03.157Z,95149.00
2024-02-29T05:45:03.208Z,95155.00
2024-02-29T05:46:03.295Z,95148.00
2024-02-29T05:47:03.271Z,95144.00
2024-02-29T05:48:03.313Z,95144.00
2024-02-29T05:49:03.448Z,95140.00
2024-02-29T05:50:03.387Z,95143.00
2024-02-29T05:51:03.450Z,95143.00
2024-02-29T05:52:03.508Z,95143.00
2024-02-29T05:53:03.534Z,95143.00
2024-02-29T05:54:03.565Z,95141.00
2024-02-29T05:55:03.673Z,95141.00
2024-02-29T05:56:03.641Z,95140.00
2024-02-29T05:57:06.205Z,95144.00
2024-02-29T05:58:03.707Z,95142.00
2024-02-29T05:59:03.688Z,95143.00
2024-02-29T06:00:03.700Z,95142.00
2024-02-29T06:01:03.806Z,95144.00
2024-02-29T06:02:03.830Z,95143.00
2024-02-29T06:03:03.688Z,95143.00
2024-02-29T06:04:03.725Z,95150.00
2024-02-29T06:05:03.716Z,95146.00
2024-02-29T06:06:03.724Z,95146.00
2024-02-29T06:07:03.773Z,95148.00
2024-02-29T06:08:03.717Z,95151.00
2024-02-29T06:09:03.716Z,95149.00
2024-02-29T06:10:03.815Z,95153.00
2024-02-29T06:11:03.746Z,95148.00
2024-02-29T06:12:03.771Z,95150.00
2024-02-29T06:13:03.733Z,95151.00
2024-02-29T06:14:03.802Z,95151.00
2024-02-29T06:15:05.744Z,95149.00
2024-02-29T06:16:03.755Z,95148.00
2024-02-29T06:17:03.700Z,95147.00
2024-02-29T06:18:03.767Z,95151.00
2024-02-29T06:19:03.741Z,95151.00
2024-02-29T06:20:04.675Z,95156.00
2024-02-29T06:21:03.730Z,95156.00
2024-02-29T06:22:03.752Z,95159.00
2024-02-29T06:23:03.735Z,95157.00
2024-02-29T06:24:03.732Z,95154.00
2024-02-29T06:25:03.761Z,95156.00
2024-02-29T06:26:03.712Z,95156.00
2024-02-29T06:27:03.737Z,95155.00
2024-02-29T06:28:03.754Z,95155.00
2024-02-29T06:29:03.755Z,95156.00
2024-02-29T06:30:04.220Z,95156.00
2024-02-29T06:31:03.738Z,95162.00
2024-02-29T06:32:03.718Z,95164.00
2024-02-29T06:33:03.824Z,95163.00
2024-02-29T06:34:03.794Z,95162.00
2024-02-29T06:35:03.740Z,95163.00
2024-02-29T06:36:05.554Z,95160.00
2024-02-29T06:37:03.806Z,95162.00
2024-02-29T06:38:03.723Z,95162.00
2024-02-29T06:39:03.756Z,95160.00
2024-02-29T06:40:03.790Z,95154.00
2024-02-29T06:41:03.732Z,95158.00
2024-02-29T06:42:03.761Z,95157.00
2024-02-29T06:43:03.790Z,95153.00
2024-02-29T06:44:03.777Z,95159.00
2024-02-29T06:45:03.778Z,95161.00
2024-02-29T06:46:03.785Z,95160.00
2024-02-29T06:47:03.751Z,95160.00
2024-02-29T06:48:03.794Z,95154.00
2024-02-29T06:49:03.836Z,95150.00
2024-02-29T06:50:04.206Z,95149.00
2024-02-29T06:51:03.767Z,95153.00
2024-02-29T06:52:03.784Z,95143.00
2024-02-29T06:53:03.772Z,95159.00
2024-02-29T06:54:03.755Z,95148.00
2024-02-29T06:55:03.865Z,95146.00
2024-02-29T06:56:03.804Z,95146.00
2024-02-29T06:57:03.772Z,95150.00
2024-02-29T06:58:03.842Z,95142.00
2024-02-29T06:59:03.789Z,95151.00
2024-02-29T07:00:03.765Z,95147.00
2024-02-29T07:01:03.859Z,95148.00
2024-02-29T07:02:03.919Z,95147.00
2024-02-29T07:03:03.834Z,95141.00
2024-02-29T07:04:03.909Z,95145.00
2024-02-29T07:05:03.826Z,95146.00
2024-02-29T07:06:03.865Z,95151.00
2024-02-29T07:07:03.816Z,95148.00
2024-02-29T07:08:03.800Z,95147.00
2024-02-29T07:09:03.796Z,95147.00
2024-02-29T07:10:04.238Z,95148.00
2024-02-29T07:11:03.885Z,95147.00
2024-02-29T07:12:03.843Z,95146.00
2024-02-29T07:13:03.890Z,95144.00
2024-02-29T07:14:03.812Z,95145.00
2024-02-29T07:15:04.275Z,95142.00
2024-02-29T07:16:03.847Z,95140.00
2024-02-29T07:17:03.868Z,95138.00
2024-02-29T07:18:03.913Z,95139.00
2024-02-29T07:19:03.862Z,95138.00
2024-02-29T07:20:03.827Z,95140.00
2024-02-29T07:21:03.840Z,95142.00
2024-02-29T07:22:03.888Z,95143.00
2024-02-29T07:23:03.861Z,95142.00
2024-02-29T07:24:03.866Z,95137.00
2024-02-29T07:25:04.281Z,95139.00
2024-02-29T07:26:03.861Z,95137.00
2024-02-29T07:27:03.838Z,95136.00
2024-02-29T07:28:03.858Z,95132.00
2024-02-29T07:29:03.843Z,95131.00
2024-02-29T07:30:03.905Z,95131.00
2024-02-29T07:31:03.932Z,95130.00
2024-02-29T07:32:03.877Z,95127.00
2024-02-29T07:33:03.970Z,95127.00
2024-02-29T07:34:03.947Z,95128.00
2024-02-29T07:35:03.826Z,95122.00
2024-02-29T07:36:03.923Z,95120.00
2024-02-29T07:37:03.994Z,95117.00
2024-02-29T07:38:03.876Z,95118.00
2024-02-29T07:39:03.839Z,95116.00
2024-02-29T07:40:04.311Z,95116.00
2024-02-29T07:41:03.865Z,95114.00
2024-02-29T07:42:03.964Z,95114.00
2024-02-29T07:43:03.956Z,95114.00
2024-02-29T07:44:03.885Z,95111.00
2024-02-29T07:45:04.238Z,95111.00
2024-02-29T07:46:04.021Z,95112.00
2024-02-29T07:47:03.993Z,95110.00
2024-02-29T07:48:04.129Z,95111.00
2024-02-29T07:49:04.194Z,95110.00
2024-02-29T07:50:04.179Z,95114.00
2024-02-29T07:51:04.246Z,95111.00
2024-02-29T07:52:04.366Z,95108.00
2024-02-29T07:53:04.290Z,95110.00
2024-02-29T07:54:04.307Z,95105.00
2024-02-29T07:55:04.891Z,95106.00
2024-02-29T07:56:04.410Z,95105.00
2024-02-29T07:57:04.449Z,95102.00
2024-02-29T07:58:04.604Z,95103.00
2024-02-29T07:59:04.580Z,95098.00
2024-02-29T08:00:04.766Z,95096.00
2024-02-29T08:01:04.801Z,95096.00
2024-02-29T08:02:04.859Z,95090.00
2024-02-29T08:03:04.840Z,95091.00
2024-02-29T08:04:04.912Z,95093.00
2024-02-29T08:05:04.945Z,95093.00
2024-02-29T08:06:04.917Z,95091.00
2024-02-29T08:07:05.156Z,95092.00
2024-02-29T08:08:04.959Z,95091.00
2024-02-29T08:09:06.843Z,95091.00
2024-02-29T08:10:05.368Z,95093.00
2024-02-29T08:11:04.994Z,95094.00
2024-02-29T08:12:05.024Z,95091.00
2024-02-29T08:13:05.061Z,95093.00
2024-02-29T08:14:05.014Z,95090.00
2024-02-29T08:15:05.281Z,95087.00
2024-02-29T08:16:04.989Z,95086.00
2024-02-29T08:17:05.008Z,95083.00
2024-02-29T08:18:05.048Z,95083.00
2024-02-29T08:19:05.060Z,95081.00
2024-02-29T08:20:05.294Z,95078.00
2024-02-29T08:21:05.029Z,95075.00
2024-02-29T08:22:05.024Z,95074.00
2024-02-29T08:23:05.006Z,95071.00
2024-02-29T08:24:05.039Z,95069.00
2024-02-29T08:25:05.326Z,95067.00
2024-02-29T08:26:05.029Z,95065.00
2024-02-29T08:27:05.000Z,95066.00
2024-02-29T08:28:05.064Z,95064.00
2024-02-29T08:29:05.051Z,95062.00
2024-02-29T08:30:05.250Z,95061.00
2024-02-29T08:31:05.068Z,95056.00
2024-02-29T08:32:05.066Z,95057.00
2024-02-29T08:33:05.078Z,95058.00
2024-02-29T08:34:05.056Z,95058.00
2024-02-29T08:35:05.067Z,95057.00
2024-02-29T08:36:05.041Z,95056.00
2024-02-29T08:37:05.076Z,95057.00
2024-02-29T08:38:05.131Z,95053.00
2024-02-29T08:39:05.021Z,95052.00
2024-02-29T08:40:05.325Z,95051.00
2024-02-29T08:41:05.018Z,95052.00
2024-02-29T08:42:05.067Z,95050.00
2024-02-29T08:43:05.067Z,95050.00
2024-02-29T08:44:05.053Z,95048.00
2024-02-29T08:45:05.286Z,95046.00
2024-02-29T08:46:05.070Z,95046.00
2024-02-29T08:47:05.065Z,95047.00
2024-02-29T08:48:05.138Z,95043.00
2024-02-29T08:49:05.125Z,95042.00
2024-02-29T08:50:05.309Z,95048.00
2024-02-29T08:51:05.074Z,95040.00
2024-02-29T08:52:05.149Z,95037.00
2024-02-29T08:53:05.072Z,95040.00
2024-02-29T08:54:06.364Z,95042.00
2024-02-29T08:55:05.275Z,95040.00
2024-02-29T08:56:05.245Z,95038.00
2024-02-29T08:57:05.329Z,95031.00
2024-02-29T08:58:05.464Z,95027.00
2024-02-29T08:59:05.371Z,95019.00
2024-02-29T09:00:05.747Z,95019.00
2024-02-29T09:01:05.506Z,95019.00
2024-02-29T09:02:05.550Z,95020.00
2024-02-29T09:03:05.473Z,95014.00
2024-02-29T09:04:05.543Z,95013.00
2024-02-29T09:05:05.533Z,95009.00
2024-02-29T09:06:05.510Z,95009.00
2024-02-29T09:07:05.598Z,95010.00
2024-02-29T09:08:05.547Z,95010.00
2024-02-29T09:09:05.539Z,95007.00
2024-02-29T09:10:05.638Z,95005.00
2024-02-29T09:11:05.628Z,95003.00
2024-02-29T09:12:05.590Z,95001.00
2024-02-29T09:13:19.864Z,94997.00
2024-02-29T09:14:06.634Z,95000.00
2024-02-29T09:15:05.647Z,94997.00
2024-02-29T09:16:05.723Z,94996.00
2024-02-29T09:17:05.653Z,94994.00
2024-02-29T09:18:05.647Z,94996.00
2024-02-29T09:19:05.664Z,94991.00
2024-02-29T09:20:05.789Z,94989.00
2024-02-29T09:21:05.625Z,94986.00
2024-02-29T09:22:05.686Z,94986.00
2024-02-29T09:23:05.655Z,94987.00
2024-02-29T09:24:05.708Z,94985.00
2024-02-29T09:25:06.368Z,94984.00
2024-02-29T09:26:05.858Z,94981.00
2024-02-29T09:27:05.972Z,94976.00
2024-02-29T09:28:06.008Z,94976.00
2024-02-29T09:29:06.102Z,94975.00
2024-02-29T09:30:06.301Z,94974.00
2024-02-29T09:31:06.198Z,94975.00
2024-02-29T09:32:06.201Z,94975.00
2024-02-29T09:33:06.307Z,94974.00
2024-02-29T09:34:06.360Z,94971.00
2024-02-29T09:35:06.804Z,94971.00
2024-02-29T09:36:06.461Z,94969.00
2024-02-29T09:37:06.716Z,94966.00
2024-02-29T09:38:06.584Z,94963.00
2024-02-29T09:39:06.657Z,94965.00
2024-02-29T09:40:06.837Z,94963.00
2024-02-29T09:41:18.470Z,94964.00
2024-02-29T09:42:13.135Z,94966.00
2024-02-29T09:43:07.740Z,94961.00
2024-02-29T09:44:06.694Z,94961.00
2024-02-29T09:45:06.782Z,94955.00
2024-02-29T09:46:06.738Z,94948.00
2024-02-29T09:47:06.705Z,94951.00
2024-02-29T09:48:06.745Z,94948.00
2024-02-29T09:49:06.746Z,94944.00
2024-02-29T09:50:06.726Z,94943.00
2024-02-29T09:51:06.720Z,94942.00
2024-02-29T09:52:06.768Z,94939.00
2024-02-29T09:53:06.702Z,94938.00
2024-02-29T09:54:06.752Z,94945.00
2024-02-29T09:55:06.833Z,94935.00
2024-02-29T09:56:06.725Z,94931.00
2024-02-29T09:57:08.544Z,94926.00
2024-02-29T09:58:06.743Z,94924.00
2024-02-29T09:59:06.721Z,94927.00
2024-02-29T10:00:06.789Z,94926.00
2024-02-29T10:01:06.808Z,94922.00
2024-02-29T10:02:06.927Z,94912.00
2024-02-29T10:03:06.770Z,94906.00
2024-02-29T10:04:06.772Z,94903.00
2024-02-29T10:05:06.833Z,94902.00
2024-02-29T10:06:06.739Z,94902.00
2024-02-29T10:07:06.766Z,94901.00
2024-02-29T10:08:07.182Z,94897.00
2024-02-29T10:09:06.737Z,94895.00
2024-02-29T10:10:06.826Z,94893.00
2024-02-29T10:11:06.774Z,94889.00
2024-02-29T10:12:06.916Z,94886.00
2024-02-29T10:13:06.780Z,94884.00
2024-02-29T10:14:06.742Z,94884.00
2024-02-29T10:15:06.774Z,94885.00
2024-02-29T10:16:06.775Z,94887.00
2024-02-29T10:17:06.781Z,94883.00
2024-02-29T10:18:06.773Z,94874.00
2024-02-29T10:19:06.881Z,94875.00
2024-02-29T10:20:06.801Z,94879.00
2024-02-29T10:21:06.759Z,94878.00
2024-02-29T10:22:06.807Z,94876.00
2024-02-29T10:23:06.796Z,94876.00
2024-02-29T10:24:06.766Z,94882.00
2024-02-29T10:25:06.900Z,94875.00
2024-02-29T10:26:06.761Z,94862.00
2024-02-29T10:27:06.780Z,94859.00
2024-02-29T10:28:06.843Z,94868.00
2024-02-29T10:29:06.793Z,94873.00
2024-02-29T10:30:06.780Z,94867.00
2024-02-29T10:31:06.787Z,94856.00
2024-02-29T10:32:06.818Z,94857.00
2024-02-29T10:33:06.919Z,94862.00
2024-02-29T10:34:06.871Z,94859.00
2024-02-29T10:35:06.841Z,94849.00
2024-02-29T10:36:06.768Z,94857.00
2024-02-29T10:37:06.870Z,94858.00
2024-02-29T10:38:06.823Z,94851.00
2024-02-29T10:39:06.804Z,94842.00
2024-02-29T10:40:08.681Z,94846.00
2024-02-29T10:41:06.778Z,94848.00
2024-02-29T10:42:06.812Z,94842.00
2024-02-29T10:43:06.848Z,94834.00
2024-02-29T10:44:06.808Z,94825.00
2024-02-29T10:45:07.288Z,94829.00
2024-02-29T10:46:06.911Z,94824.00
2024-02-29T10:47:06.828Z,94826.00
2024-02-29T10:48:06.958Z,94819.00
2024-02-29T10:49:06.921Z,94816.00
2024-02-29T10:50:07.012Z,94833.00
2024-02-29T10:51:06.954Z,94832.00
2024-02-29T10:52:06.992Z,94823.00
2024-02-29T10:53:06.954Z,94815.00
2024-02-29T10:54:06.962Z,94817.00
2024-02-29T10:55:07.317Z,94816.00
2024-02-29T10:56:06.999Z,94818.00
2024-02-29T10:57:07.039Z,94816.00
2024-02-29T10:58:07.125Z,94810.00
2024-02-29T10:59:07.054Z,94808.00
2024-02-29T11:00:07.341Z,94807.00
2024-02-29T11:01:07.154Z,94807.00
2024-02-29T11:02:07.151Z,94809.00
2024-02-29T11:03:07.128Z,94807.00
2024-02-29T11:04:07.327Z,94804.00
2024-02-29T11:05:07.372Z,94799.00
2024-02-29T11:06:07.249Z,94797.00
2024-02-29T11:07:07.345Z,94795.00
2024-02-29T11:08:07.315Z,94795.00
2024-02-29T11:09:07.344Z,94794.00
2024-02-29T11:10:07.878Z,94792.00
2024-02-29T11:11:07.493Z,94786.00
2024-02-29T11:12:07.446Z,94782.00
2024-02-29T11:13:07.583Z,94780.00
2024-02-29T11:14:07.555Z,94785.00
2024-02-29T11:15:07.629Z,94784.00
2024-02-29T11:16:07.916Z,94781.00
2024-02-29T11:17:07.713Z,94775.00
2024-02-29T11:18:07.761Z,94776.00
2024-02-29T11:19:07.964Z,94774.00
2024-02-29T11:20:07.863Z,94777.00
2024-02-29T11:21:07.921Z,94773.00
2024-02-29T11:22:08.011Z,94768.00
2024-02-29T11:23:11.068Z,94764.00
2024-02-29T11:24:08.001Z,94765.00
2024-02-29T11:25:08.149Z,94767.00
2024-02-29T11:26:08.107Z,94764.00
2024-02-29T11:27:08.012Z,94756.00
2024-02-29T11:28:08.059Z,94748.00
2024-02-29T11:29:08.019Z,94741.00
2024-02-29T11:30:08.047Z,94742.00
2024-02-29T11:31:08.049Z,94746.00
2024-02-29T11:32:08.984Z,94751.00
2024-02-29T11:33:08.188Z,94751.00
2024-02-29T11:34:08.094Z,94750.00
2024-02-29T11:35:08.016Z,94749.00
2024-02-29T11:36:08.339Z,94743.00
2024-02-29T11:37:08.032Z,94736.00
2024-02-29T11:38:08.048Z,94734.00
2024-02-29T11:39:08.042Z,94731.00
2024-02-29T11:40:08.079Z,94731.00
2024-02-29T11:41:08.313Z,94730.00
2024-02-29T11:42:08.129Z,94730.00
2024-02-29T11:43:08.479Z,94724.00
2024-02-29T11:44:08.135Z,94718.00
2024-02-29T11:45:08.138Z,94713.00